Ratcliff, Texas
Current Conditions -  °F | °C
As of 7:55 AM on Wednesday 26 Nov 2014 (Local Time) from KDKR Reporting Station
Clear Clear  
Wind Chill: 41°   Ceiling: Unl
Heat Index: 45°   Visibility: 10mi
Dew Point: 39°   Wind: 6mph
Humidity: 81%   Direction: 200°SSW
Pressure: 30.19"   Gusts: NA
Location:  31.39°N, 95.14°W
Report Text: KDKR 261355Z AUTO 20005KT 10SM CLR 07/04 A3019 RMK AO2
Loading
Personal Weather Stations






























Interactive Weather Map New forecast layout! Learn more

10-Day Weather Forecast

Advertisements
Track Severe Weather on mobile